createdAt,value
2018-06-04T00:00:00.177Z,7.70
2018-06-04T00:02:28.572Z,7.77
2018-06-04T00:04:56.896Z,7.83
2018-06-04T00:07:25.331Z,7.50
2018-06-04T00:09:53.762Z,7.27
2018-06-04T00:12:22.095Z,7.70
2018-06-04T00:14:50.421Z,7.33
2018-06-04T00:17:18.760Z,7.90
2018-06-04T00:19:47.092Z,7.87
2018-06-04T00:22:15.539Z,7.63
2018-06-04T00:24:44.247Z,7.77
2018-06-04T00:27:12.567Z,8.20
2018-06-04T00:29:40.774Z,8.00
2018-06-04T00:32:09.107Z,8.50
2018-06-04T00:34:37.406Z,8.20
2018-06-04T00:37:05.519Z,8.60
2018-06-04T00:39:33.986Z,8.40
2018-06-04T00:42:02.431Z,8.60
2018-06-04T00:44:30.727Z,9.57
2018-06-04T00:46:59.059Z,8.33
2018-06-04T00:49:27.403Z,8.17
2018-06-04T00:51:55.828Z,8.87
2018-06-04T00:54:24.119Z,8.30
2018-06-04T00:56:52.427Z,7.70
2018-06-04T00:59:20.713Z,7.67
2018-06-04T01:01:49.113Z,8.17
2018-06-04T01:04:17.400Z,8.70
2018-06-04T01:06:45.719Z,8.33
2018-06-04T01:09:14.055Z,8.80
2018-06-04T01:11:42.417Z,9.00
2018-06-04T01:14:10.818Z,8.33
2018-06-04T01:16:39.170Z,8.07
2018-06-04T01:19:07.472Z,8.30
2018-06-04T01:21:35.869Z,7.90
2018-06-04T01:24:04.289Z,8.23
2018-06-04T01:26:32.593Z,8.17
2018-06-04T01:29:00.935Z,8.27
2018-06-04T01:31:29.336Z,8.57
2018-06-04T01:33:57.708Z,8.93
2018-06-04T01:36:26.022Z,9.40
2018-06-04T01:38:54.359Z,8.90
2018-06-04T01:41:22.783Z,8.83
2018-06-04T01:43:51.071Z,9.50
2018-06-04T01:46:19.683Z,8.73
2018-06-04T01:48:47.971Z,9.30
2018-06-04T01:51:16.388Z,8.97
2018-06-04T01:53:44.769Z,9.37
2018-06-04T01:56:13.196Z,9.10
2018-06-04T01:58:41.602Z,9.23
2018-06-04T02:01:09.926Z,8.97
2018-06-04T02:03:38.246Z,8.97
2018-06-04T02:06:06.535Z,8.60
2018-06-04T02:08:34.838Z,9.70
2018-06-04T02:11:03.183Z,11.10
2018-06-04T02:13:31.801Z,11.80
2018-06-04T02:16:00.117Z,11.33
2018-06-04T02:18:28.431Z,10.47
2018-06-04T02:20:56.819Z,10.07
2018-06-04T02:23:25.185Z,9.77
2018-06-04T02:25:53.485Z,10.37
2018-06-04T02:28:21.854Z,10.00
2018-06-04T02:30:56.588Z,9.60
2018-06-04T02:33:24.961Z,9.70
2018-06-04T02:35:53.298Z,9.10
2018-06-04T02:38:21.614Z,9.20
2018-06-04T02:40:50.032Z,8.80
2018-06-04T02:43:18.368Z,9.70
2018-06-04T02:45:46.682Z,9.27
2018-06-04T02:48:15.084Z,9.30
2018-06-04T02:50:43.399Z,9.20
2018-06-04T02:53:11.793Z,8.93
2018-06-04T02:55:40.140Z,12.57
2018-06-04T02:58:08.445Z,11.57
2018-06-04T03:00:36.768Z,11.00
2018-06-04T03:03:05.249Z,10.60
2018-06-04T03:05:33.536Z,9.87
2018-06-04T03:08:01.888Z,9.97
2018-06-04T03:10:30.196Z,10.23
2018-06-04T03:12:58.617Z,9.63
2018-06-04T03:15:26.957Z,9.80
2018-06-04T03:17:55.321Z,9.77
2018-06-04T03:20:23.673Z,9.60
2018-06-04T03:22:51.779Z,10.43
2018-06-04T03:25:20.150Z,10.50
2018-06-04T03:27:48.470Z,10.83
2018-06-04T03:30:16.799Z,10.37
2018-06-04T03:32:45.185Z,10.07
2018-06-04T03:35:13.813Z,10.47
2018-06-04T03:37:42.194Z,10.60
2018-06-04T03:40:10.527Z,9.70
2018-06-04T03:42:38.955Z,9.53
2018-06-04T03:45:07.346Z,9.43
2018-06-04T03:47:35.648Z,9.17
2018-06-04T03:50:03.960Z,9.93
2018-06-04T03:52:32.304Z,9.97
2018-06-04T03:55:00.684Z,9.57
2018-06-04T03:57:29.020Z,9.50
2018-06-04T03:59:57.354Z,10.23
2018-06-04T04:02:25.673Z,9.53
2018-06-04T04:04:54.010Z,10.07
2018-06-04T04:07:22.476Z,9.73
2018-06-04T04:09:50.763Z,9.63
2018-06-04T04:12:19.068Z,10.10
2018-06-04T04:14:47.451Z,10.07
2018-06-04T04:17:15.889Z,10.23
2018-06-04T04:19:44.192Z,9.97
2018-06-04T04:22:12.917Z,10.07
2018-06-04T04:24:41.279Z,9.50
2018-06-04T04:27:09.628Z,10.97
2018-06-04T04:29:37.971Z,10.90
2018-06-04T04:32:06.329Z,11.00
2018-06-04T04:34:34.407Z,11.40
2018-06-04T04:37:02.743Z,10.77
2018-06-04T04:39:31.103Z,10.73
2018-06-04T04:41:59.476Z,10.80
2018-06-04T04:44:27.899Z,10.67
2018-06-04T04:46:56.281Z,10.30
2018-06-04T04:49:24.625Z,10.67
2018-06-04T04:51:52.968Z,10.53
2018-06-04T04:54:21.428Z,10.33
2018-06-04T04:56:49.735Z,11.23
2018-06-04T04:59:18.178Z,10.60
2018-06-04T05:01:46.511Z,10.47
2018-06-04T05:04:14.901Z,11.03
2018-06-04T05:06:43.230Z,12.67
2018-06-04T05:09:11.587Z,13.50
2018-06-04T05:11:39.921Z,12.10
2018-06-04T05:14:08.890Z,11.30
2018-06-04T05:16:41.561Z,11.77
2018-06-04T05:19:09.997Z,10.97
2018-06-04T05:21:38.398Z,10.37
2018-06-04T05:24:06.795Z,9.57
2018-06-04T05:26:35.284Z,10.43
2018-06-04T05:29:03.735Z,10.07
2018-06-04T05:31:32.056Z,9.20
2018-06-04T05:34:00.465Z,10.17
2018-06-04T05:36:28.833Z,10.30
2018-06-04T05:38:57.152Z,9.77
2018-06-04T05:41:25.558Z,9.30
2018-06-04T05:43:53.974Z,10.03
2018-06-04T05:46:22.472Z,8.67
2018-06-04T05:48:50.832Z,9.27
2018-06-04T05:51:19.156Z,8.87
2018-06-04T05:53:47.554Z,8.43
2018-06-04T05:56:16.007Z,8.47
2018-06-04T05:58:44.118Z,9.55
2018-06-04T06:01:12.590Z,9.33
2018-06-04T06:03:40.929Z,8.57
2018-06-04T06:06:09.293Z,9.43
2018-06-04T06:08:37.732Z,8.33
2018-06-04T06:11:06.221Z,8.03
2018-06-04T06:13:34.603Z,8.97
2018-06-04T06:16:02.993Z,8.83
2018-06-04T06:18:31.444Z,9.40
2018-06-04T06:20:59.756Z,8.53
2018-06-04T06:23:28.089Z,9.07
2018-06-04T06:25:56.503Z,9.53
2018-06-04T06:28:24.822Z,8.73
2018-06-04T06:30:53.985Z,8.07
2018-06-04T06:33:22.455Z,9.40
2018-06-04T06:35:50.794Z,8.70
2018-06-04T06:38:19.158Z,8.20
2018-06-04T06:40:47.518Z,8.17
2018-06-04T06:43:19.897Z,8.40
2018-06-04T06:45:48.813Z,8.27
2018-06-04T06:48:17.139Z,8.40
2018-06-04T06:50:45.546Z,8.90
2018-06-04T06:53:14.185Z,9.10
2018-06-04T06:55:42.759Z,8.20
2018-06-04T06:58:11.649Z,8.03
2018-06-04T07:00:40.395Z,8.17
2018-06-04T07:03:09.129Z,8.97
2018-06-04T07:05:37.961Z,7.93
2018-06-04T07:08:06.875Z,8.20
2018-06-04T07:10:35.059Z,8.17
2018-06-04T07:13:03.494Z,7.90
2018-06-04T07:15:32.032Z,7.50
2018-06-04T07:18:00.438Z,7.47
2018-06-04T07:20:28.824Z,7.40
2018-06-04T07:22:57.118Z,6.70
2018-06-04T07:25:25.527Z,6.70
2018-06-04T07:27:53.924Z,6.53
2018-06-04T07:30:22.239Z,6.83
2018-06-04T07:32:50.609Z,7.80
2018-06-04T07:35:18.947Z,6.50
2018-06-04T07:37:48.535Z,6.93
2018-06-04T07:40:18.040Z,7.00
2018-06-04T07:42:46.734Z,7.20
2018-06-04T07:45:15.472Z,6.80
2018-06-04T07:47:44.505Z,6.90
2018-06-04T07:50:16.484Z,7.17
2018-06-04T07:52:45.119Z,7.03
2018-06-04T07:55:14.019Z,7.00
2018-06-04T07:57:42.421Z,7.40
2018-06-04T08:00:11.779Z,7.23
2018-06-04T08:02:46.390Z,6.80
2018-06-04T08:05:16.306Z,7.03
2018-06-04T08:07:44.704Z,7.13
2018-06-04T08:10:13.281Z,6.60
2018-06-04T08:12:42.739Z,6.77
2018-06-04T08:15:11.779Z,7.20
2018-06-04T08:17:43.498Z,7.17
2018-06-04T08:20:11.787Z,6.73
2018-06-04T08:22:40.075Z,7.73
2018-06-04T08:25:08.387Z,7.40
2018-06-04T08:27:36.762Z,7.40
2018-06-04T08:30:05.239Z,7.10
2018-06-04T08:32:33.525Z,6.77
2018-06-04T08:35:01.929Z,6.37
2018-06-04T08:37:30.255Z,7.17
2018-06-04T08:39:58.671Z,6.37
2018-06-04T08:42:26.963Z,7.40
2018-06-04T08:44:55.275Z,7.00
2018-06-04T08:47:23.680Z,6.97
2018-06-04T08:49:51.979Z,6.73
2018-06-04T08:52:20.337Z,7.00
2018-06-04T08:54:48.757Z,6.57
2018-06-04T08:57:17.101Z,7.20
2018-06-04T08:59:45.411Z,7.00
2018-06-04T09:02:13.726Z,7.50
2018-06-04T09:04:42.023Z,7.40
2018-06-04T09:07:10.395Z,7.17
2018-06-04T09:09:38.687Z,6.90
2018-06-04T09:12:07.070Z,6.83
2018-06-04T09:14:35.381Z,6.10
2018-06-04T09:17:03.790Z,6.90
2018-06-04T09:19:32.099Z,7.20
2018-06-04T09:22:00.467Z,7.60
2018-06-04T09:24:28.457Z,6.60
2018-06-04T09:26:56.835Z,6.90
2018-06-04T09:29:25.171Z,7.10
2018-06-04T09:31:53.488Z,6.67
2018-06-04T09:34:21.783Z,6.67
2018-06-04T09:36:50.079Z,7.00
2018-06-04T09:39:18.667Z,7.03
2018-06-04T09:41:46.947Z,6.43
2018-06-04T09:44:15.351Z,6.10
2018-06-04T09:46:43.728Z,6.33
2018-06-04T09:49:13.027Z,5.97
2018-06-04T09:51:41.339Z,6.30
2018-06-04T09:54:09.682Z,5.93
2018-06-04T09:56:37.745Z,6.30
2018-06-04T09:59:06.073Z,7.00
2018-06-04T10:01:34.364Z,6.00
2018-06-04T10:04:02.379Z,6.30
2018-06-04T10:06:30.767Z,6.60
2018-06-04T10:08:59.101Z,7.10
2018-06-04T10:11:27.119Z,6.10
2018-06-04T10:13:55.411Z,6.73
2018-06-04T10:16:23.753Z,6.67
2018-06-04T10:18:52.118Z,6.27
2018-06-04T10:21:20.460Z,6.03
2018-06-04T10:23:48.556Z,5.70
2018-06-04T10:26:16.593Z,5.87
2018-06-04T10:28:44.868Z,5.23
2018-06-04T10:31:13.146Z,5.60
2018-06-04T10:33:41.450Z,5.30
2018-06-04T10:36:09.737Z,5.70
2018-06-04T10:38:38.030Z,5.47
2018-06-04T10:41:06.436Z,4.93
2018-06-04T10:43:34.715Z,5.70
2018-06-04T10:46:03.038Z,5.37
2018-06-04T10:48:31.086Z,4.83
2018-06-04T10:50:59.161Z,5.00
2018-06-04T10:53:27.246Z,5.73
2018-06-04T10:55:55.280Z,5.20
2018-06-04T10:58:23.637Z,4.73
2018-06-04T11:00:51.958Z,4.60
2018-06-04T11:03:19.967Z,4.30
2018-06-04T11:05:48.409Z,3.60
2018-06-04T11:08:16.743Z,3.57
2018-06-04T11:10:45.028Z,3.27
2018-06-04T11:13:19.892Z,3.37
2018-06-04T11:15:47.946Z,3.10
2018-06-04T11:18:16.311Z,3.27
2018-06-04T11:20:44.618Z,3.13
2018-06-04T11:23:12.689Z,3.50
2018-06-04T11:25:40.717Z,3.73
2018-06-04T11:28:09.220Z,3.20
2018-06-04T11:30:37.875Z,3.53
2018-06-04T11:33:06.180Z,3.30
2018-06-04T11:35:34.950Z,3.37
2018-06-04T11:38:03.443Z,3.80
2018-06-04T11:40:32.123Z,3.43
2018-06-04T11:45:34.560Z,3.67
2018-06-04T11:48:03.645Z,3.50
2018-06-04T11:50:31.804Z,4.70
2018-06-04T11:53:00.145Z,6.03
2018-06-04T11:55:28.464Z,4.53
2018-06-04T11:57:56.558Z,3.80
2018-06-04T12:00:24.886Z,3.53
2018-06-04T12:02:53.278Z,4.10
2018-06-04T12:05:21.627Z,4.07
2018-06-04T12:07:50.004Z,3.80
2018-06-04T12:10:18.340Z,3.70
2018-06-04T12:12:46.375Z,4.93
2018-06-04T12:15:14.735Z,4.40
2018-06-04T12:17:43.175Z,3.90
2018-06-04T12:20:11.499Z,4.37
2018-06-04T12:22:39.803Z,4.30
2018-06-04T12:25:07.802Z,3.57
2018-06-04T12:27:36.250Z,3.70
2018-06-04T12:30:04.902Z,3.57
2018-06-04T12:32:33.355Z,3.77
2018-06-04T12:35:01.719Z,4.00
2018-06-04T12:37:30.074Z,3.90
2018-06-04T12:39:58.088Z,4.53
2018-06-04T12:42:26.370Z,4.07
2018-06-04T12:44:54.837Z,4.10
2018-06-04T12:47:23.704Z,4.10
2018-06-04T12:49:52.278Z,4.10
2018-06-04T12:52:20.567Z,3.77
2018-06-04T12:54:49.031Z,4.30
2018-06-04T12:57:17.109Z,4.77
2018-06-04T12:59:45.291Z,5.07
2018-06-04T13:02:13.616Z,20.57
2018-06-04T13:04:42.014Z,15.97
2018-06-04T13:07:10.356Z,6.13
2018-06-04T13:09:38.744Z,5.30
2018-06-04T13:12:07.589Z,4.43
2018-06-04T13:14:35.585Z,4.55
2018-06-04T13:17:03.866Z,20.88
2018-06-04T13:19:32.240Z,14.58
2018-06-04T13:22:00.519Z,5.53
2018-06-04T13:24:28.775Z,5.70
2018-06-04T13:26:57.120Z,5.47
2018-06-04T13:29:25.228Z,6.40
2018-06-04T13:31:53.532Z,5.42
2018-06-04T13:34:21.889Z,4.67
2018-06-04T13:36:50.348Z,4.92
2018-06-04T13:39:18.433Z,5.50
2018-06-04T13:41:46.748Z,5.08
2018-06-04T13:44:15.030Z,5.28
2018-06-04T13:46:43.430Z,5.30
2018-06-04T13:49:11.567Z,4.83
2018-06-04T13:51:39.850Z,5.42
2018-06-04T13:54:08.263Z,5.30
2018-06-04T13:56:36.351Z,5.03
2018-06-04T13:59:04.670Z,5.45
2018-06-04T14:01:32.996Z,5.22
2018-06-04T14:04:01.076Z,5.33
2018-06-04T14:06:29.106Z,4.90
2018-06-04T14:08:57.391Z,4.78
2018-06-04T14:11:25.837Z,4.62
2018-06-04T14:13:54.248Z,5.10
2018-06-04T14:16:22.582Z,4.67
2018-06-04T14:18:51.168Z,4.50
2018-06-04T14:21:19.483Z,4.58
2018-06-04T14:23:47.779Z,4.70
2018-06-04T14:26:15.829Z,5.22
2018-06-04T14:28:44.164Z,4.35
2018-06-04T14:31:12.568Z,4.87
2018-06-04T14:33:41.001Z,4.40
2018-06-04T14:36:08.995Z,4.22
2018-06-04T14:38:37.345Z,4.00
2018-06-04T14:41:05.514Z,3.90
2018-06-04T14:43:33.541Z,4.53
2018-06-04T14:46:01.931Z,4.53
2018-06-04T14:48:30.304Z,4.65
2018-06-04T14:50:58.681Z,4.03
2018-06-04T14:53:27.101Z,4.03
2018-06-04T14:55:55.149Z,4.15
2018-06-04T14:58:23.531Z,4.22
2018-06-04T15:00:51.667Z,4.22
2018-06-04T15:03:20.012Z,3.72
2018-06-04T15:05:48.355Z,4.08
2018-06-04T15:08:16.812Z,4.12
2018-06-04T15:10:45.221Z,4.10
2018-06-04T15:13:13.319Z,4.42
2018-06-04T15:15:41.747Z,4.00
2018-06-04T15:18:10.099Z,3.40
2018-06-04T15:20:38.531Z,3.72
2018-06-04T15:23:06.706Z,3.42
2018-06-04T15:25:34.775Z,3.40
2018-06-04T15:30:38.837Z,3.08
2018-06-04T15:33:07.272Z,3.47
2018-06-04T15:35:35.603Z,3.65
2018-06-04T15:38:04.155Z,3.47
2018-06-04T15:40:32.229Z,3.45
2018-06-04T15:43:00.275Z,3.33
2018-06-04T15:45:28.592Z,3.40
2018-06-04T15:47:57.032Z,3.47
2018-06-04T15:50:25.173Z,3.37
2018-06-04T15:52:53.564Z,3.50
2018-06-04T15:55:21.870Z,3.50
2018-06-04T15:57:50.392Z,3.10
2018-06-04T16:00:18.892Z,3.30
2018-06-04T16:02:47.341Z,3.62
2018-06-04T16:05:15.632Z,3.60
2018-06-04T16:07:44.071Z,3.17
2018-06-04T16:10:12.486Z,2.72
2018-06-04T16:12:40.935Z,2.67
2018-06-04T16:15:09.590Z,2.70
2018-06-04T16:17:37.923Z,2.83
2018-06-04T16:20:06.231Z,2.85
2018-06-04T16:22:34.647Z,2.70
2018-06-04T16:25:02.948Z,2.55
2018-06-04T16:27:31.144Z,2.90
2018-06-04T16:29:59.670Z,2.70
2018-06-04T16:32:28.337Z,2.72
2018-06-04T16:34:56.630Z,3.08
2018-06-04T16:37:25.031Z,3.50
2018-06-04T16:39:53.118Z,3.10
2018-06-04T16:42:21.431Z,3.62
2018-06-04T16:44:49.845Z,3.62
2018-06-04T16:47:18.299Z,3.10
2018-06-04T16:49:46.715Z,3.27
2018-06-04T16:52:14.895Z,3.20
2018-06-04T16:54:43.334Z,3.37
2018-06-04T16:57:11.733Z,3.70
2018-06-04T16:59:40.173Z,3.58
2018-06-04T17:02:08.699Z,3.50
2018-06-04T17:04:37.008Z,3.90
2018-06-04T17:07:05.101Z,4.05
2018-06-04T17:09:33.860Z,4.00
2018-06-04T17:12:01.955Z,3.67
2018-06-04T17:14:30.266Z,3.60
2018-06-04T17:16:58.619Z,3.75
2018-06-04T17:19:27.180Z,3.87
2018-06-04T17:21:55.683Z,3.92
2018-06-04T17:24:24.125Z,3.77
2018-06-04T17:26:52.202Z,3.75
2018-06-04T17:29:20.636Z,3.67
2018-06-04T17:31:49.022Z,3.75
2018-06-04T17:34:17.350Z,3.67
2018-06-04T17:36:45.636Z,3.75
2018-06-04T17:39:13.943Z,4.33
2018-06-04T17:41:42.295Z,4.30
2018-06-04T17:44:10.632Z,4.42
2018-06-04T17:46:38.670Z,4.50
2018-06-04T17:49:07.032Z,4.10
2018-06-04T17:51:35.533Z,4.05
2018-06-04T17:54:03.905Z,4.53
2018-06-04T17:56:32.287Z,4.00
2018-06-04T17:59:00.619Z,4.45
2018-06-04T18:01:28.955Z,4.35
2018-06-04T18:03:57.346Z,4.20
2018-06-04T18:06:25.677Z,4.35
2018-06-04T18:08:53.989Z,4.75
2018-06-04T18:11:22.072Z,4.75
2018-06-04T18:13:50.201Z,4.55
2018-06-04T18:16:18.495Z,4.17
2018-06-04T18:18:46.840Z,4.35
2018-06-04T18:21:15.127Z,4.47
2018-06-04T18:23:43.491Z,4.85
2018-06-04T18:26:11.790Z,4.50
2018-06-04T18:28:40.102Z,4.97
2018-06-04T18:31:08.176Z,4.70
2018-06-04T18:33:36.269Z,4.00
2018-06-04T18:36:04.591Z,4.27
2018-06-04T18:38:32.878Z,4.47
2018-06-04T18:41:01.173Z,4.57
2018-06-04T18:43:29.230Z,4.10
2018-06-04T18:45:57.992Z,4.07
2018-06-04T18:48:26.392Z,4.83
2018-06-04T18:50:54.675Z,4.33
2018-06-04T18:53:23.640Z,4.67
2018-06-04T18:55:51.971Z,4.67
2018-06-04T18:58:20.045Z,4.67
2018-06-04T19:00:48.069Z,4.80
2018-06-04T19:03:16.479Z,4.83
2018-06-04T19:05:44.517Z,4.40
2018-06-04T19:08:12.816Z,4.90
2018-06-04T19:10:41.151Z,4.83
2018-06-04T19:13:09.543Z,4.77
2018-06-04T19:15:37.911Z,4.53
2018-06-04T19:18:06.240Z,4.80
2018-06-04T19:20:34.316Z,4.27
2018-06-04T19:23:02.450Z,5.10
2018-06-04T19:25:30.736Z,4.83
2018-06-04T19:27:59.084Z,5.07
2018-06-04T19:30:27.436Z,5.00
2018-06-04T19:32:55.780Z,5.03
2018-06-04T19:35:24.070Z,4.57
2018-06-04T19:37:52.098Z,5.10
2018-06-04T19:40:20.412Z,5.70
2018-06-04T19:42:48.515Z,5.10
2018-06-04T19:45:16.873Z,5.60
2018-06-04T19:47:44.905Z,5.50
2018-06-04T19:50:13.271Z,5.27
2018-06-04T19:52:41.980Z,4.87
2018-06-04T19:55:10.344Z,5.27
2018-06-04T19:57:38.695Z,5.27
2018-06-04T20:00:07.099Z,5.60
2018-06-04T20:02:35.453Z,5.50
2018-06-04T20:05:03.773Z,6.20
2018-06-04T20:07:32.058Z,5.30
2018-06-04T20:10:00.334Z,6.30
2018-06-04T20:12:28.747Z,6.20
2018-06-04T20:14:57.129Z,6.13
2018-06-04T20:17:25.582Z,5.80
2018-06-04T20:19:53.923Z,6.33
2018-06-04T20:22:22.304Z,5.70
2018-06-04T20:24:50.755Z,6.13
2018-06-04T20:27:19.147Z,6.10
2018-06-04T20:29:47.639Z,5.90
2018-06-04T20:32:15.958Z,6.43
2018-06-04T20:34:44.327Z,6.10
2018-06-04T20:37:12.659Z,5.90
2018-06-04T20:39:41.099Z,5.97
2018-06-04T20:42:09.398Z,6.53
2018-06-04T20:44:37.833Z,6.73
2018-06-04T20:47:06.192Z,6.53
2018-06-04T20:49:34.601Z,6.23
2018-06-04T20:52:02.951Z,6.40
2018-06-04T20:54:31.342Z,6.30
2018-06-04T20:56:59.609Z,6.40
2018-06-04T20:59:28.007Z,6.47
2018-06-04T21:01:56.317Z,5.90
2018-06-04T21:04:24.628Z,5.73
2018-06-04T21:06:52.935Z,6.40
2018-06-04T21:09:20.969Z,5.53
2018-06-04T21:11:49.285Z,6.00
2018-06-04T21:14:17.615Z,5.90
2018-06-04T21:16:46.002Z,6.37
2018-06-04T21:19:14.383Z,6.00
2018-06-04T21:21:42.751Z,6.27
2018-06-04T21:24:11.089Z,6.70
2018-06-04T21:26:39.386Z,6.63
2018-06-04T21:29:07.715Z,7.23
2018-06-04T21:31:36.033Z,6.70
2018-06-04T21:34:04.156Z,6.63
2018-06-04T21:36:32.484Z,6.53
2018-06-04T21:39:00.907Z,6.63
2018-06-04T21:41:29.684Z,6.90
2018-06-04T21:43:58.208Z,6.80
2018-06-04T21:46:26.329Z,7.00
2018-06-04T21:48:54.751Z,6.90
2018-06-04T21:51:23.406Z,6.57
2018-06-04T21:53:51.789Z,7.10
2018-06-04T21:56:20.284Z,7.77
2018-06-04T21:58:48.601Z,6.90
2018-06-04T22:01:16.924Z,6.83
2018-06-04T22:03:45.313Z,6.57
2018-06-04T22:06:13.863Z,6.60
2018-06-04T22:08:42.371Z,7.47
2018-06-04T22:11:10.759Z,7.27
2018-06-04T22:13:55.033Z,6.73
2018-06-04T22:16:23.754Z,6.90
2018-06-04T22:18:51.850Z,6.50
2018-06-04T22:21:20.253Z,6.20
2018-06-04T22:23:48.756Z,6.40
2018-06-04T22:26:17.204Z,7.00
2018-06-04T22:28:45.622Z,6.53
2018-06-04T22:31:13.709Z,6.37
2018-06-04T22:33:41.855Z,6.57
2018-06-04T22:36:10.234Z,6.27
2018-06-04T22:38:38.611Z,6.83
2018-06-04T22:41:07.247Z,6.10
2018-06-04T22:43:35.619Z,6.17
2018-06-04T22:46:03.957Z,6.33
2018-06-04T22:48:32.280Z,6.43
2018-06-04T22:51:00.841Z,6.70
2018-06-04T22:53:29.135Z,6.30
2018-06-04T22:55:57.450Z,6.77
2018-06-04T22:58:25.823Z,6.73
2018-06-04T23:00:54.132Z,6.97
2018-06-04T23:03:22.487Z,6.63
2018-06-04T23:05:50.801Z,7.00
2018-06-04T23:08:19.079Z,6.90
2018-06-04T23:10:47.386Z,6.47
2018-06-04T23:13:15.655Z,7.17
2018-06-04T23:15:44.012Z,7.47
2018-06-04T23:18:12.491Z,6.87
2018-06-04T23:20:40.837Z,7.27
2018-06-04T23:23:09.133Z,8.27
2018-06-04T23:25:37.458Z,7.30
2018-06-04T23:28:05.794Z,7.37
2018-06-04T23:30:33.903Z,6.90
2018-06-04T23:33:02.224Z,7.80
2018-06-04T23:35:30.615Z,8.03
2018-06-04T23:37:58.964Z,7.60
2018-06-04T23:40:27.256Z,7.30
2018-06-04T23:42:55.572Z,7.33
2018-06-04T23:45:23.907Z,7.40
2018-06-04T23:47:52.260Z,7.67
2018-06-04T23:50:20.684Z,8.23
2018-06-04T23:52:48.763Z,8.03
2018-06-04T23:55:16.857Z,7.80
2018-06-04T23:57:45.319Z,7.80
